Time;durP1;ratioP1;P1;durP2;ratioP2;P2;SDS_P1;SDS_P2;PMS_P1;PMS_P2;Temp;Humidity;BMP_temperature;BMP_pressure;BME280_temperature;BME280_humidity;BME280_pressure;Samples;Min_cycle;Max_cycle;Signal;HPM_P1;HPM_P2
2023/03/21 00:01:06;;;;;;;21.87;12.50;;;9.30;99.90;;;;;;6216336;23;20256;-83
2023/03/21 00:03:34;;;;;;;20.97;12.33;;;9.30;99.90;;;;;;6217213;23;20163;-84
2023/03/21 00:06:05;;;;;;;26.53;13.57;;;9.30;99.90;;;;;;6216800;23;20241;-82
2023/03/21 00:08:32;;;;;;;23.37;12.77;;;9.30;99.90;;;;;;6216710;23;20165;-81
2023/03/21 00:11:00;;;;;;;28.37;13.60;;;9.30;99.90;;;;;;6216672;23;20304;-83
2023/03/21 00:13:31;;;;;;;26.97;13.67;;;9.30;99.90;;;;;;6217309;23;20248;-82
2023/03/21 00:15:58;;;;;;;18.10;11.23;;;9.30;99.90;;;;;;6217072;23;20170;-83
2023/03/21 00:18:25;;;;;;;22.43;12.20;;;9.30;99.90;;;;;;6216914;23;20244;-83
2023/03/21 00:20:59;;;;;;;26.50;13.70;;;9.30;99.90;;;;;;6216438;23;20177;-83
2023/03/21 00:23:28;;;;;;;26.70;12.43;;;9.30;99.90;;;;;;6216835;23;20253;-83
2023/03/21 00:25:55;;;;;;;23.00;12.43;;;9.30;99.90;;;;;;6217280;23;20178;-82
2023/03/21 00:28:22;;;;;;;27.33;12.60;;;9.30;99.90;;;;;;6216330;23;20626;-83
2023/03/21 00:30:50;;;;;;;29.70;13.00;;;9.30;99.90;;;;;;6217018;23;20198;-84
2023/03/21 00:33:20;;;;;;;28.10;12.87;;;9.30;99.90;;;;;;6216176;23;20172;-82
2023/03/21 00:35:51;;;;;;;27.70;13.00;;;9.30;99.90;;;;;;6215802;23;20166;-82
2023/03/21 00:38:18;;;;;;;29.07;12.20;;;9.30;99.90;;;;;;6216138;23;20194;-82
2023/03/21 00:40:47;;;;;;;36.53;13.80;;;9.30;99.90;;;;;;6217175;23;20253;-82
2023/03/21 00:43:16;;;;;;;24.03;13.37;;;9.30;99.90;;;;;;6216222;23;20256;-82
2023/03/21 00:45:43;;;;;;;25.97;13.67;;;9.30;99.90;;;;;;6216632;23;20229;-83
2023/03/21 00:48:10;;;;;;;34.17;16.37;;;9.30;99.90;;;;;;6216496;23;20197;-82
2023/03/21 00:50:37;;;;;;;31.87;14.47;;;9.30;99.90;;;;;;6214870;23;20607;-82
2023/03/21 00:53:04;;;;;;;33.20;15.73;;;9.30;99.90;;;;;;6215954;23;20446;-83
2023/03/21 00:55:32;;;;;;;26.63;14.47;;;9.30;99.90;;;;;;6215328;23;20200;-82
2023/03/21 00:58:00;;;;;;;26.20;13.90;;;9.40;99.90;;;;;;6215709;23;20186;-83
2023/03/21 01:00:27;;;;;;;22.93;13.90;;;9.40;99.90;;;;;;6215161;23;20208;-83
2023/03/21 01:02:57;;;;;;;26.43;14.17;;;9.40;99.90;;;;;;6215359;23;20246;-83
2023/03/21 01:08:06;;;;;;;22.00;12.77;;;9.40;99.90;;;;;;6215509;23;20170;-83
2023/03/21 01:10:33;;;;;;;20.03;13.00;;;9.40;99.90;;;;;;6215554;23;20173;-83
2023/03/21 01:13:01;;;;;;;22.17;13.63;;;9.30;99.90;;;;;;6216196;23;20220;-83
2023/03/21 01:15:28;;;;;;;27.47;15.97;;;9.40;99.90;;;;;;6216323;23;20181;-82
2023/03/21 01:17:55;;;;;;;21.90;13.20;;;9.40;99.90;;;;;;6215094;23;20238;-84
2023/03/21 01:20:22;;;;;;;29.33;15.90;;;9.40;99.90;;;;;;6216813;23;20256;-82
2023/03/21 01:22:49;;;;;;;27.87;15.17;;;9.40;99.90;;;;;;6216345;23;20256;-84
2023/03/21 01:25:16;;;;;;;24.47;15.40;;;9.40;99.90;;;;;;6216344;23;20170;-83
2023/03/21 01:27:42;;;;;;;25.17;14.43;;;9.40;99.90;;;;;;6216830;23;20258;-83
2023/03/21 01:30:12;;;;;;;20.40;13.97;;;9.40;99.90;;;;;;6216050;23;20196;-82
2023/03/21 01:32:39;;;;;;;23.97;14.90;;;9.40;99.90;;;;;;6215659;23;20174;-82
2023/03/21 01:35:06;;;;;;;25.20;15.27;;;9.40;99.90;;;;;;6216809;23;20178;-80
2023/03/21 01:37:34;;;;;;;20.03;13.77;;;9.40;99.90;;;;;;6216629;23;20193;-83
2023/03/21 01:40:00;;;;;;;24.23;13.87;;;9.40;99.90;;;;;;6215515;23;20194;-84
2023/03/21 01:42:27;;;;;;;18.57;12.87;;;9.40;99.90;;;;;;6216680;23;20253;-82
2023/03/21 01:44:57;;;;;;;21.77;12.13;;;9.40;99.90;;;;;;6215795;23;20257;-84
2023/03/21 01:47:25;;;;;;;18.07;11.73;;;9.50;99.90;;;;;;6215758;23;20245;-82
2023/03/21 01:49:56;;;;;;;17.60;12.00;;;9.40;99.90;;;;;;6215833;23;20979;-83
2023/03/21 01:52:29;;;;;;;15.17;11.50;;;9.40;99.90;;;;;;6214991;23;20193;-83
2023/03/21 01:54:57;;;;;;;18.67;11.17;;;9.40;99.90;;;;;;6216166;23;20260;-83
2023/03/21 01:57:31;;;;;;;20.20;12.27;;;9.50;99.90;;;;;;6215843;23;20242;-84
2023/03/21 02:00:11;;;;;;;15.13;10.63;;;9.50;99.90;;;;;;6215227;23;20225;-83
2023/03/21 02:02:49;;;;;;;21.70;11.40;;;9.50;99.90;;;;;;6216322;23;20165;-83
2023/03/21 02:05:19;;;;;;;21.33;12.47;;;9.50;99.90;;;;;;6215234;23;20169;-84
2023/03/21 02:07:47;;;;;;;22.40;11.70;;;9.50;99.90;;;;;;6215968;23;20185;-83
2023/03/21 02:10:16;;;;;;;23.10;11.33;;;9.50;99.90;;;;;;6215495;23;20198;-81
2023/03/21 02:12:43;;;;;;;23.97;11.67;;;9.50;99.90;;;;;;6215430;23;20220;-83
2023/03/21 02:15:11;;;;;;;22.00;12.17;;;9.50;99.90;;;;;;6215277;23;20205;-84
2023/03/21 02:17:44;;;;;;;30.27;11.70;;;9.50;99.90;;;;;;6216063;23;20253;-83
2023/03/21 02:20:28;;;;;;;24.47;12.53;;;9.50;99.90;;;;;;6214554;23;20201;-84
2023/03/21 02:23:40;;;;;;;22.87;12.33;;;9.50;99.90;;;;;;6215674;23;20172;-82
2023/03/21 02:26:54;;;;;;;23.70;11.63;;;9.50;99.90;;;;;;6214391;23;20184;-83
2023/03/21 02:29:52;;;;;;;20.47;11.77;;;9.50;99.90;;;;;;6124086;23;20250;-83
2023/03/21 02:32:31;;;;;;;25.80;13.57;;;9.50;99.90;;;;;;6125039;23;20171;-83
2023/03/21 02:35:13;;;;;;;31.60;12.97;;;9.50;99.90;;;;;;6193005;23;20454;-83
2023/03/21 02:37:45;;;;;;;22.23;13.23;;;9.50;99.90;;;;;;6216531;23;20232;-82
2023/03/21 02:40:18;;;;;;;20.43;12.37;;;9.50;99.90;;;;;;6217663;23;20190;-82
2023/03/21 02:42:59;;;;;;;22.67;12.27;;;9.50;99.90;;;;;;6217484;23;20177;-83
2023/03/21 02:45:29;;;;;;;25.03;13.00;;;9.50;99.90;;;;;;6217475;23;20706;-82
2023/03/21 02:48:03;;;;;;;32.47;13.70;;;9.40;99.90;;;;;;6217836;23;20180;-82
2023/03/21 02:50:36;;;;;;;22.60;12.57;;;9.50;99.90;;;;;;6217531;23;20158;-84
2023/03/21 02:53:08;;;;;;;25.90;14.13;;;9.50;99.90;;;;;;6217623;23;20224;-82
2023/03/21 02:55:37;;;;;;;23.83;13.23;;;9.50;99.90;;;;;;6216878;23;20169;-83
2023/03/21 02:58:06;;;;;;;29.13;12.40;;;9.50;99.90;;;;;;6217787;23;20261;-82
2023/03/21 03:00:34;;;;;;;22.33;11.30;;;9.50;99.90;;;;;;6217368;23;20230;-82
2023/03/21 03:03:02;;;;;;;21.33;10.57;;;9.60;99.90;;;;;;6216566;23;20489;-83
2023/03/21 03:05:33;;;;;;;22.07;11.80;;;9.50;99.90;;;;;;6217265;23;20166;-83
2023/03/21 03:08:17;;;;;;;23.23;12.50;;;9.50;99.90;;;;;;6217578;23;20186;-82
2023/03/21 03:10:58;;;;;;;26.80;12.03;;;9.50;99.90;;;;;;6216961;23;20238;-84
2023/03/21 03:13:37;;;;;;;23.83;11.80;;;9.50;99.90;;;;;;6217959;23;20162;-86
2023/03/21 03:16:15;;;;;;;21.37;11.23;;;9.50;99.90;;;;;;6217421;23;20161;-85
2023/03/21 03:18:51;;;;;;;25.30;13.33;;;9.60;99.90;;;;;;6217694;23;20186;-84
2023/03/21 03:21:24;;;;;;;25.33;12.90;;;9.60;99.90;;;;;;6217665;23;20241;-83
2023/03/21 03:23:55;;;;;;;18.27;12.67;;;9.60;99.90;;;;;;6217324;23;20162;-83
2023/03/21 03:26:26;;;;;;;20.63;13.50;;;9.50;99.90;;;;;;6217981;23;20169;-85
2023/03/21 03:28:58;;;;;;;22.63;12.77;;;9.60;99.90;;;;;;6217368;23;20608;-82
2023/03/21 03:31:31;;;;;;;27.40;14.37;;;9.50;99.90;;;;;;6216891;23;20166;-84
2023/03/21 03:34:01;;;;;;;25.07;14.10;;;9.50;99.90;;;;;;6217058;23;20182;-83
2023/03/21 03:36:34;;;;;;;20.40;14.40;;;9.60;99.90;;;;;;6217484;23;20244;-83
2023/03/21 03:39:07;;;;;;;22.00;13.63;;;9.60;99.90;;;;;;6216331;23;20213;-84
2023/03/21 03:41:40;;;;;;;25.17;14.23;;;9.60;99.90;;;;;;6216942;23;20178;-83
2023/03/21 03:44:08;;;;;;;25.90;14.90;;;9.60;99.90;;;;;;6217337;23;20162;-83
2023/03/21 03:46:40;;;;;;;24.13;15.23;;;9.60;99.90;;;;;;6216022;23;20199;-83
2023/03/21 03:49:14;;;;;;;32.87;16.37;;;9.60;99.90;;;;;;6217283;23;20193;-84
2023/03/21 03:51:48;;;;;;;25.10;15.80;;;9.60;99.90;;;;;;6215540;23;20190;-85
2023/03/21 03:54:21;;;;;;;27.33;15.37;;;9.60;99.90;;;;;;6216666;23;20241;-83
2023/03/21 03:56:48;;;;;;;26.07;16.27;;;9.60;99.90;;;;;;6216824;23;20232;-82
2023/03/21 03:59:18;;;;;;;26.93;15.57;;;9.60;99.90;;;;;;6216046;23;20656;-82
2023/03/21 04:01:45;;;;;;;21.63;15.47;;;9.60;99.90;;;;;;6216343;23;20202;-78
2023/03/21 04:04:12;;;;;;;32.90;16.77;;;9.60;99.90;;;;;;6216463;23;20259;-82
2023/03/21 04:06:40;;;;;;;30.43;17.13;;;9.70;99.90;;;;;;6216936;23;20170;-82
2023/03/21 04:09:07;;;;;;;23.20;16.23;;;9.60;99.90;;;;;;6217038;23;20240;-83
2023/03/21 04:11:35;;;;;;;24.83;15.80;;;9.70;99.90;;;;;;6215920;23;20174;-83
2023/03/21 04:14:02;;;;;;;27.43;17.40;;;9.60;99.90;;;;;;6215337;23;20170;-84
2023/03/21 04:16:30;;;;;;;22.43;16.60;;;9.60;99.90;;;;;;6216858;23;20266;-81
2023/03/21 04:18:57;;;;;;;27.57;17.83;;;9.60;99.90;;;;;;6215784;23;20700;-84
2023/03/21 04:21:24;;;;;;;23.87;17.03;;;9.70;99.90;;;;;;6216024;23;20479;-86
2023/03/21 04:23:53;;;;;;;27.93;16.20;;;9.70;99.90;;;;;;6216479;23;20170;-84
2023/03/21 04:26:21;;;;;;;27.97;17.37;;;9.70;99.90;;;;;;6216660;23;20178;-84
2023/03/21 04:28:50;;;;;;;21.63;14.10;;;9.60;99.90;;;;;;6215602;23;20166;-82
2023/03/21 04:31:17;;;;;;;20.83;15.47;;;9.70;99.90;;;;;;6216346;23;20253;-83
2023/03/21 04:33:46;;;;;;;19.80;13.03;;;9.60;99.90;;;;;;6216483;23;20583;-79
2023/03/21 04:36:23;;;;;;;19.17;13.97;;;9.70;99.90;;;;;;6216502;23;20220;-81
2023/03/21 04:38:51;;;;;;;21.20;12.50;;;9.60;99.90;;;;;;6216437;23;20534;-84
2023/03/21 04:41:18;;;;;;;17.77;11.47;;;9.60;99.90;;;;;;6215657;23;20604;-84
2023/03/21 04:43:46;;;;;;;20.90;11.77;;;9.60;99.90;;;;;;6216842;23;20181;-83
2023/03/21 04:46:14;;;;;;;17.57;11.60;;;9.70;99.90;;;;;;6216355;23;20169;-83
2023/03/21 04:48:41;;;;;;;17.50;11.93;;;9.60;99.90;;;;;;6216450;23;20220;-83
2023/03/21 04:51:08;;;;;;;17.80;10.70;;;9.60;99.90;;;;;;6215948;23;20489;-84
2023/03/21 04:53:34;;;;;;;16.77;10.43;;;9.60;99.90;;;;;;6216836;23;20174;-82
2023/03/21 04:56:01;;;;;;;19.23;11.70;;;9.60;99.90;;;;;;6216468;23;20193;-83
2023/03/21 04:58:29;;;;;;;12.93;9.80;;;9.70;99.90;;;;;;6216650;23;20269;-83
2023/03/21 05:00:56;;;;;;;14.20;8.77;;;9.60;99.90;;;;;;6215668;23;20482;-83
2023/03/21 05:03:24;;;;;;;17.20;9.27;;;9.60;99.90;;;;;;6215568;23;20571;-83
2023/03/21 05:05:51;;;;;;;13.80;8.83;;;9.60;99.90;;;;;;6216654;23;20249;-82
2023/03/21 05:08:18;;;;;;;18.23;9.53;;;9.60;99.90;;;;;;6216308;23;20170;-84
2023/03/21 05:10:45;;;;;;;18.17;10.87;;;9.60;99.90;;;;;;6216136;23;20201;-80
2023/03/21 05:13:12;;;;;;;18.33;10.60;;;9.60;99.90;;;;;;6215626;23;20170;-83
2023/03/21 05:15:38;;;;;;;15.37;11.77;;;9.60;99.90;;;;;;6216274;23;20245;-83
2023/03/21 05:18:10;;;;;;;22.37;12.33;;;9.60;99.90;;;;;;6215366;23;20658;-84
2023/03/21 05:20:41;;;;;;;21.37;12.60;;;9.60;99.90;;;;;;6216472;23;20190;-82
2023/03/21 05:23:09;;;;;;;19.77;10.87;;;9.60;99.90;;;;;;6216142;23;20198;-83
2023/03/21 05:25:36;;;;;;;15.30;10.27;;;9.60;99.90;;;;;;6216073;23;20167;-82
2023/03/21 05:28:04;;;;;;;23.03;11.57;;;9.60;99.90;;;;;;6216210;23;20178;-83
2023/03/21 05:30:32;;;;;;;22.50;11.87;;;9.60;99.90;;;;;;6214841;23;20198;-83
2023/03/21 05:32:59;;;;;;;19.30;12.13;;;9.60;99.90;;;;;;6216088;23;20209;-83
2023/03/21 05:35:27;;;;;;;21.87;12.87;;;9.60;99.90;;;;;;6215808;23;20265;-80
2023/03/21 05:37:55;;;;;;;21.13;12.47;;;9.60;99.90;;;;;;6215178;23;20249;-81
2023/03/21 05:40:22;;;;;;;20.27;12.97;;;9.60;99.90;;;;;;6215488;23;20198;-84
2023/03/21 05:42:50;;;;;;;21.63;13.13;;;9.60;99.90;;;;;;6216289;23;20268;-83
2023/03/21 05:45:17;;;;;;;23.97;14.43;;;9.60;99.90;;;;;;6215384;23;20605;-83
2023/03/21 05:47:44;;;;;;;22.43;14.83;;;9.60;99.90;;;;;;6216287;23;20560;-82
2023/03/21 05:50:13;;;;;;;25.83;14.10;;;9.60;99.90;;;;;;6216497;23;20177;-84
2023/03/21 05:52:40;;;;;;;23.53;14.47;;;9.60;99.90;;;;;;6216158;23;20170;-83
2023/03/21 05:55:09;;;;;;;21.80;12.67;;;9.60;99.90;;;;;;6216226;23;20170;-82
2023/03/21 05:57:38;;;;;;;22.67;13.77;;;9.60;99.90;;;;;;6216243;23;20198;-84
2023/03/21 06:00:07;;;;;;;16.73;12.00;;;9.60;99.90;;;;;;6215394;23;20201;-83
2023/03/21 06:02:34;;;;;;;19.47;13.07;;;9.60;99.90;;;;;;6215792;23;20629;-84
2023/03/21 06:05:01;;;;;;;21.03;12.40;;;9.60;99.90;;;;;;6215054;23;20177;-84
2023/03/21 06:07:27;;;;;;;23.63;13.03;;;9.60;99.90;;;;;;6215587;23;20202;-84
2023/03/21 06:09:54;;;;;;;22.10;12.40;;;9.60;99.90;;;;;;6215516;23;20172;-82
2023/03/21 06:12:22;;;;;;;23.03;13.03;;;9.60;99.90;;;;;;6214553;23;20174;-83
2023/03/21 06:14:49;;;;;;;24.00;13.47;;;9.60;99.90;;;;;;6215810;23;20170;-82
2023/03/21 06:17:16;;;;;;;23.70;13.70;;;9.60;99.90;;;;;;6215284;23;20597;-84
2023/03/21 06:19:43;;;;;;;26.23;13.90;;;9.60;99.90;;;;;;6215565;23;20174;-82
2023/03/21 06:22:10;;;;;;;24.30;13.53;;;9.60;99.90;;;;;;6215981;23;20163;-82
2023/03/21 06:24:37;;;;;;;22.20;14.17;;;9.60;99.90;;;;;;6214946;23;20317;-81
2023/03/21 06:27:04;;;;;;;23.63;14.80;;;9.60;99.90;;;;;;6213412;23;20178;-83
2023/03/21 06:29:32;;;;;;;30.93;14.87;;;9.60;99.90;;;;;;6214591;23;20177;-84
2023/03/21 06:31:59;;;;;;;24.40;14.37;;;9.60;99.90;;;;;;6215574;23;20249;-84
2023/03/21 06:34:26;;;;;;;27.57;15.20;;;9.60;99.90;;;;;;6214983;23;20205;-82
2023/03/21 06:36:53;;;;;;;28.43;14.40;;;9.50;99.90;;;;;;6215279;23;20174;-82
2023/03/21 06:39:20;;;;;;;22.97;14.37;;;9.50;99.90;;;;;;6215180;23;20177;-83
2023/03/21 06:41:47;;;;;;;25.40;15.60;;;9.50;99.90;;;;;;6214543;23;20208;-82
2023/03/21 06:44:14;;;;;;;24.67;15.77;;;9.50;99.90;;;;;;6215133;23;20169;-84
2023/03/21 06:46:43;;;;;;;29.97;17.20;;;9.50;99.90;;;;;;6215111;23;20174;-83
2023/03/21 06:49:09;;;;;;;27.03;17.13;;;9.50;99.90;;;;;;6214551;23;20213;-82
2023/03/21 06:51:36;;;;;;;27.13;16.30;;;9.60;99.90;;;;;;6215587;23;20249;-82
2023/03/21 06:54:03;;;;;;;26.50;16.10;;;9.60;99.90;;;;;;6215127;23;20166;-82
2023/03/21 06:56:30;;;;;;;29.83;17.70;;;9.60;99.90;;;;;;6214988;23;20190;-83
2023/03/21 06:58:57;;;;;;;28.37;16.40;;;9.60;99.90;;;;;;6215163;23;20260;-83
2023/03/21 07:01:26;;;;;;;27.47;17.63;;;9.60;99.90;;;;;;6214426;23;20233;-84
2023/03/21 07:03:56;;;;;;;23.03;17.43;;;9.60;99.90;;;;;;6216392;23;20245;-84
2023/03/21 07:06:25;;;;;;;31.80;17.90;;;9.60;99.90;;;;;;6216332;23;20182;-84
2023/03/21 07:08:53;;;;;;;24.97;16.23;;;9.60;99.90;;;;;;6215017;23;20170;-84
2023/03/21 07:11:19;;;;;;;25.33;17.90;;;9.60;99.90;;;;;;6215826;23;20168;-83
2023/03/21 07:13:47;;;;;;;30.90;19.40;;;9.60;99.90;;;;;;6215741;23;20189;-84
2023/03/21 07:16:15;;;;;;;28.63;18.00;;;9.60;99.90;;;;;;6217279;23;20174;-85
2023/03/21 07:18:42;;;;;;;23.90;17.37;;;9.60;99.90;;;;;;6217659;23;20166;-85
2023/03/21 07:21:10;;;;;;;31.33;19.77;;;9.60;99.90;;;;;;6217569;23;20197;-86
2023/03/21 07:23:38;;;;;;;31.43;18.53;;;9.60;99.90;;;;;;6217855;23;20504;-86
2023/03/21 07:26:06;;;;;;;37.63;20.00;;;9.60;99.90;;;;;;6218233;23;20412;-87
2023/03/21 07:28:33;;;;;;;30.10;19.80;;;9.60;99.90;;;;;;6218178;23;20202;-85
2023/03/21 07:31:09;;;;;;;31.37;19.93;;;9.60;99.90;;;;;;6214135;23;20170;-83
2023/03/21 07:33:57;;;;;;;32.37;19.27;;;9.50;99.90;;;;;;6188758;23;20563;-83
2023/03/21 07:36:26;;;;;;;28.10;19.10;;;9.60;99.90;;;;;;6216574;23;20201;-82
2023/03/21 07:38:53;;;;;;;33.17;20.23;;;9.50;99.90;;;;;;6216895;23;20622;-82
2023/03/21 07:41:20;;;;;;;30.47;18.37;;;9.60;99.90;;;;;;6216499;23;20293;-83
2023/03/21 07:43:47;;;;;;;33.60;20.30;;;9.50;99.90;;;;;;6216758;23;20461;-83
2023/03/21 07:46:14;;;;;;;30.00;19.33;;;9.50;99.90;;;;;;6216245;23;20228;-82
2023/03/21 07:48:41;;;;;;;31.13;19.40;;;9.50;99.90;;;;;;6216743;23;20174;-84
2023/03/21 07:51:08;;;;;;;31.97;19.40;;;9.60;99.90;;;;;;6215729;23;20555;-82
2023/03/21 07:53:36;;;;;;;38.87;21.73;;;9.60;99.90;;;;;;6216706;23;20162;-83
2023/03/21 07:56:04;;;;;;;29.80;19.40;;;9.60;99.90;;;;;;6216852;23;20169;-83
2023/03/21 07:58:33;;;;;;;33.23;19.90;;;9.60;99.90;;;;;;6215845;23;20246;-82
2023/03/21 08:01:00;;;;;;;27.63;18.73;;;9.60;99.90;;;;;;6215578;23;20285;-81
2023/03/21 08:03:29;;;;;;;32.13;19.70;;;9.60;99.90;;;;;;6217264;23;20174;-84
2023/03/21 08:05:58;;;;;;;33.27;20.20;;;9.60;99.90;;;;;;6216884;23;20474;-83
2023/03/21 08:08:25;;;;;;;30.30;19.70;;;9.60;99.90;;;;;;6216465;23;20202;-82
2023/03/21 08:10:53;;;;;;;28.77;18.13;;;9.60;99.90;;;;;;6215475;23;20412;-82
2023/03/21 08:13:20;;;;;;;35.73;20.20;;;9.60;99.90;;;;;;6214582;23;20180;-87
2023/03/21 08:15:47;;;;;;;30.10;18.30;;;9.60;99.90;;;;;;6216087;23;20178;-87
2023/03/21 08:18:14;;;;;;;28.03;18.17;;;9.60;99.90;;;;;;6217000;23;20248;-76
2023/03/21 08:20:41;;;;;;;31.83;17.40;;;9.70;99.90;;;;;;6222381;23;20277;-84
2023/03/21 08:23:07;;;;;;;32.83;19.20;;;9.70;99.90;;;;;;6225488;23;20189;-83
2023/03/21 08:25:35;;;;;;;28.33;18.33;;;9.80;99.90;;;;;;6216260;23;20209;-77
2023/03/21 08:28:04;;;;;;;29.53;18.53;;;9.80;99.90;;;;;;6216019;23;20181;-83
2023/03/21 08:30:31;;;;;;;28.17;16.83;;;9.90;99.90;;;;;;6219394;23;20252;-83
2023/03/21 08:32:58;;;;;;;25.30;15.50;;;10.00;99.90;;;;;;6220049;23;20206;-84
2023/03/21 08:35:25;;;;;;;30.07;17.20;;;10.00;99.90;;;;;;6219583;23;20743;-84
2023/03/21 08:37:52;;;;;;;30.20;16.40;;;10.00;99.90;;;;;;6221439;23;20437;-84
2023/03/21 08:40:20;;;;;;;25.23;16.67;;;10.10;99.90;;;;;;6221263;23;20174;-83
2023/03/21 08:42:47;;;;;;;26.60;15.00;;;10.20;99.90;;;;;;6218281;23;20468;-76
2023/03/21 08:45:17;;;;;;;26.83;14.57;;;10.20;99.90;;;;;;6215027;23;20244;-81
2023/03/21 08:47:44;;;;;;;27.30;15.73;;;10.30;99.90;;;;;;6216664;23;20202;-81
2023/03/21 08:50:14;;;;;;;22.60;14.70;;;10.30;99.90;;;;;;6215761;23;20249;-82
2023/03/21 08:52:41;;;;;;;27.07;14.43;;;10.30;99.90;;;;;;6216822;23;20186;-81
2023/03/21 08:55:09;;;;;;;25.97;15.73;;;10.30;99.90;;;;;;6215445;23;20288;-82
2023/03/21 08:57:37;;;;;;;20.80;14.60;;;10.40;99.90;;;;;;6216868;23;20244;-82
2023/03/21 09:00:08;;;;;;;24.83;15.20;;;10.40;99.90;;;;;;6216189;23;20201;-82
2023/03/21 09:02:36;;;;;;;25.07;14.53;;;10.40;99.90;;;;;;6214935;23;20456;-82
2023/03/21 09:05:04;;;;;;;26.23;14.97;;;10.50;99.90;;;;;;6216751;23;20253;-80
2023/03/21 09:07:33;;;;;;;24.17;14.73;;;10.50;99.90;;;;;;6214381;23;20209;-82
2023/03/21 09:10:00;;;;;;;20.97;13.97;;;10.60;99.90;;;;;;6216110;23;20170;-81
2023/03/21 09:12:27;;;;;;;21.67;14.57;;;10.70;99.90;;;;;;6216049;23;20253;-81
2023/03/21 09:14:54;;;;;;;22.63;13.83;;;10.80;99.90;;;;;;6215104;23;20254;-83
2023/03/21 09:17:21;;;;;;;19.10;13.17;;;10.80;99.90;;;;;;6215510;23;20261;-78
2023/03/21 09:19:49;;;;;;;21.83;13.33;;;10.90;99.90;;;;;;6214986;23;20205;-77
2023/03/21 09:22:17;;;;;;;19.23;12.40;;;10.90;99.90;;;;;;6214172;23;20273;-75
2023/03/21 09:24:46;;;;;;;25.00;14.23;;;11.00;99.90;;;;;;6213871;23;20176;-75
2023/03/21 09:27:14;;;;;;;19.03;12.50;;;11.10;99.90;;;;;;6214691;23;20260;-76
2023/03/21 09:29:42;;;;;;;17.20;11.67;;;11.10;99.90;;;;;;6214141;23;20170;-76
2023/03/21 09:32:09;;;;;;;18.37;12.10;;;11.30;99.90;;;;;;6214499;23;20539;-75
2023/03/21 09:34:40;;;;;;;16.70;11.73;;;11.30;99.90;;;;;;6214933;23;20490;-76
2023/03/21 09:37:12;;;;;;;15.57;11.17;;;11.40;99.90;;;;;;6213647;23;20432;-76
2023/03/21 09:39:39;;;;;;;20.10;11.57;;;11.50;99.90;;;;;;6214156;23;20719;-76
2023/03/21 09:42:25;;;;;;;18.27;10.97;;;11.60;99.90;;;;;;6214620;23;20194;-76
2023/03/21 09:45:04;;;;;;;15.50;10.43;;;11.60;99.90;;;;;;6212739;23;20170;-78
2023/03/21 09:47:44;;;;;;;20.63;10.97;;;11.70;99.90;;;;;;6215060;23;20170;-76
2023/03/21 09:50:16;;;;;;;17.93;11.20;;;11.60;99.90;;;;;;6208931;23;20166;-75
2023/03/21 09:52:48;;;;;;;15.87;10.40;;;11.70;99.90;;;;;;6213406;23;20158;-76
2023/03/21 09:55:20;;;;;;;17.83;9.50;;;11.60;99.90;;;;;;6212485;23;20166;-78
2023/03/21 09:57:51;;;;;;;15.40;10.33;;;11.60;99.90;;;;;;6212343;23;20210;-75
2023/03/21 10:00:26;;;;;;;14.03;10.03;;;11.70;99.90;;;;;;6212181;23;20170;-76
2023/03/21 10:02:58;;;;;;;15.00;9.30;;;11.70;99.90;;;;;;6213327;23;20348;-77
2023/03/21 10:05:28;;;;;;;15.10;9.93;;;11.70;99.90;;;;;;6211796;23;20166;-76
2023/03/21 10:08:03;;;;;;;17.77;9.60;;;11.80;99.90;;;;;;6212647;23;20165;-76
2023/03/21 10:10:34;;;;;;;16.10;9.53;;;11.80;99.90;;;;;;6213532;23;20188;-76
2023/03/21 10:13:01;;;;;;;17.17;10.10;;;11.80;99.90;;;;;;6212364;23;20173;-78
2023/03/21 10:15:28;;;;;;;14.50;9.80;;;11.90;99.90;;;;;;6213628;23;20177;-75
2023/03/21 10:17:59;;;;;;;15.53;9.27;;;12.00;99.90;;;;;;6212963;23;20180;-75
2023/03/21 10:20:29;;;;;;;15.70;10.50;;;12.00;99.90;;;;;;6212905;23;20181;-77
2023/03/21 10:22:59;;;;;;;16.90;10.53;;;12.10;99.90;;;;;;6212485;23;20204;-76
2023/03/21 10:25:31;;;;;;;16.60;9.97;;;12.10;99.90;;;;;;6212025;23;20173;-76
2023/03/21 10:28:00;;;;;;;15.50;9.23;;;12.10;99.90;;;;;;6213367;23;20249;-76
2023/03/21 10:30:38;;;;;;;16.40;9.40;;;12.10;99.90;;;;;;6212694;23;20181;-75
2023/03/21 10:33:09;;;;;;;15.00;9.67;;;12.10;99.90;;;;;;6213880;23;20241;-75
2023/03/21 10:35:38;;;;;;;15.57;9.53;;;12.10;99.90;;;;;;6213933;23;20166;-76
2023/03/21 10:38:11;;;;;;;13.90;9.37;;;12.10;99.90;;;;;;6214604;23;20174;-75
2023/03/21 10:40:38;;;;;;;17.83;9.77;;;12.10;99.90;;;;;;6213610;23;20253;-76
2023/03/21 10:43:34;;;;;;;17.93;9.87;;;12.00;99.90;;;;;;6213621;23;20225;-75
2023/03/21 10:46:07;;;;;;;19.57;10.03;;;12.10;99.90;;;;;;6162151;23;20448;-78
2023/03/21 10:48:40;;;;;;;16.53;10.30;;;12.10;99.90;;;;;;6213295;23;20253;-75
2023/03/21 10:51:09;;;;;;;15.40;9.57;;;12.20;99.90;;;;;;6215305;23;20548;-76
2023/03/21 10:53:41;;;;;;;15.77;10.17;;;12.30;99.90;;;;;;6215133;23;20174;-74
2023/03/21 10:56:10;;;;;;;13.63;9.97;;;12.30;99.90;;;;;;6216039;23;20170;-76
2023/03/21 10:58:41;;;;;;;13.77;9.60;;;12.40;99.90;;;;;;6214849;23;20177;-76
2023/03/21 11:01:14;;;;;;;16.00;9.77;;;12.40;99.90;;;;;;6214288;23;20616;-75
2023/03/21 11:03:43;;;;;;;19.70;10.00;;;12.40;99.90;;;;;;6216388;23;20163;-76
2023/03/21 11:06:15;;;;;;;20.43;10.10;;;12.40;99.90;;;;;;6215436;23;20200;-76
2023/03/21 11:08:47;;;;;;;20.33;9.30;;;12.40;99.90;;;;;;6214686;23;20643;-79
2023/03/21 11:11:21;;;;;;;16.83;10.00;;;12.40;99.90;;;;;;6216160;23;20198;-76
2023/03/21 11:13:56;;;;;;;13.50;8.93;;;12.40;99.90;;;;;;6215252;23;20239;-74
2023/03/21 11:16:30;;;;;;;16.77;9.50;;;12.50;99.90;;;;;;6214735;23;20169;-77
2023/03/21 11:19:01;;;;;;;18.10;10.37;;;12.50;99.90;;;;;;6216105;23;20225;-75
2023/03/21 11:21:28;;;;;;;16.03;9.67;;;12.50;99.90;;;;;;6212109;23;20208;-74
2023/03/21 11:23:57;;;;;;;16.03;9.70;;;12.50;99.90;;;;;;6215507;23;20555;-76
2023/03/21 11:26:28;;;;;;;19.27;10.37;;;12.50;99.90;;;;;;6214502;23;20169;-75
2023/03/21 11:28:56;;;;;;;19.17;11.00;;;12.50;99.90;;;;;;6214935;23;20247;-80
2023/03/21 11:31:25;;;;;;;18.33;10.20;;;12.50;99.90;;;;;;6214792;23;20177;-75
2023/03/21 11:33:57;;;;;;;18.33;9.80;;;12.50;99.90;;;;;;6215135;23;20758;-75
2023/03/21 11:36:33;;;;;;;13.23;9.87;;;12.70;99.90;;;;;;6214382;23;20198;-77
2023/03/21 11:39:13;;;;;;;17.40;10.23;;;12.80;99.90;;;;;;6215097;23;20162;-75
2023/03/21 11:41:42;;;;;;;13.53;9.40;;;12.90;99.90;;;;;;6215661;23;20467;-76
2023/03/21 11:44:26;;;;;;;15.97;9.17;;;12.90;99.90;;;;;;6215058;23;20175;-74
2023/03/21 11:46:54;;;;;;;16.20;8.40;;;13.00;99.90;;;;;;6215420;23;20173;-75
2023/03/21 11:49:21;;;;;;;17.50;9.40;;;13.10;99.90;;;;;;6214862;23;20201;-76
2023/03/21 11:51:57;;;;;;;16.20;8.83;;;13.20;99.90;;;;;;6213597;23;20250;-77
2023/03/21 11:54:31;;;;;;;21.07;9.60;;;13.30;99.90;;;;;;6215165;23;20245;-75
2023/03/21 11:57:06;;;;;;;13.23;8.33;;;13.50;99.90;;;;;;6215008;23;20308;-76
2023/03/21 11:59:42;;;;;;;16.23;8.43;;;13.70;99.90;;;;;;6215577;23;20618;-76
2023/03/21 12:02:54;;;;;;;12.60;6.87;;;13.60;99.90;;;;;;6213786;23;20205;-74
2023/03/21 12:05:26;;;;;;;12.27;6.17;;;13.70;99.90;;;;;;6214564;23;20193;-75
2023/03/21 12:08:02;;;;;;;13.13;7.30;;;13.70;99.90;;;;;;6214582;23;20559;-74
2023/03/21 12:10:45;;;;;;;11.93;6.63;;;13.60;99.90;;;;;;6215210;23;20253;-76
2023/03/21 12:13:25;;;;;;;11.43;6.33;;;13.70;99.90;;;;;;6214746;23;20164;-76
2023/03/21 12:16:10;;;;;;;15.83;6.17;;;13.60;99.90;;;;;;6215064;23;20194;-75
2023/03/21 12:19:01;;;;;;;12.67;4.90;;;13.60;99.90;;;;;;6213284;23;20169;-75
2023/03/21 12:21:34;;;;;;;12.17;5.20;;;13.70;99.90;;;;;;6214645;23;20249;-75
2023/03/21 12:24:06;;;;;;;11.67;5.70;;;13.80;99.90;;;;;;6214742;23;20171;-78
2023/03/21 12:26:40;;;;;;;10.97;5.63;;;13.80;99.90;;;;;;6214645;23;20168;-78
2023/03/21 12:29:36;;;;;;;10.43;5.90;;;13.90;99.90;;;;;;6215266;23;20474;-81
2023/03/21 12:32:15;;;;;;;11.20;5.40;;;13.90;99.90;;;;;;6213731;23;20193;-77
2023/03/21 12:35:17;;;;;;;12.13;6.93;;;13.90;99.90;;;;;;6214677;23;20261;-77
2023/03/21 12:37:53;;;;;;;9.33;6.50;;;13.90;99.90;;;;;;6209591;23;20174;-77
2023/03/21 12:40:33;;;;;;;11.07;6.13;;;13.90;99.90;;;;;;6213865;23;20165;-80
2023/03/21 12:43:29;;;;;;;15.17;7.20;;;13.90;99.90;;;;;;6215014;23;20193;-79
2023/03/21 12:46:01;;;;;;;13.67;7.93;;;13.80;99.90;;;;;;6211289;23;20202;-77
2023/03/21 12:48:40;;;;;;;16.07;7.30;;;13.80;99.90;;;;;;6212847;23;20166;-77
2023/03/21 12:51:12;;;;;;;11.07;7.13;;;13.60;99.90;;;;;;6214050;23;20238;-78
2023/03/21 12:53:51;;;;;;;11.83;7.30;;;13.70;99.90;;;;;;6213679;23;20166;-76
2023/03/21 12:56:22;;;;;;;13.07;7.03;;;13.60;99.90;;;;;;6214858;23;20194;-77